METAR Data
IDs: Format: Raw Decoded Include TAF

Data at: 1828 UTC 02 Oct 2022

METAR for:LFAQ (Albert/Picardie Arpt, HD, FR)
Text:LFAQ 021800Z AUTO 30005KT 9999 BKN025 OVC032 13/12 Q1024
Temperature: 13.0°C ( 55°F)
Dewpoint: 12.0°C ( 54°F) [RH = 94%]
Pressure (altimeter):30.24 inches Hg (1024.0 mb)
Winds:from the WNW (300 degrees) at 6 MPH (5 knots; 2.6 m/s)
Visibility:6 or more sm (10+ km)
Ceiling:2500 feet AGL
Clouds: broken clouds at 2500 feet AGL, overcast cloud deck at 3200 feet AGL

TAF for:LFAQ (Albert/Picardie Arpt, HD, FR) issued at 1543 UTC 02 Oct 2022
Text:TAF AMD LFAQ 021543Z 0215/0224 32005KT 9999 BKN040
Forecast period:1500 to 1800 UTC 02 October 2022
Forecast type:FROM: standard forecast or significant change
Winds:from the NW (320 degrees) at 6 MPH (5 knots; 2.6 m/s)
Visibility:6 or more sm (10+ km)
Ceiling:4000 feet AGL
Clouds: broken clouds at 4000 feet AGL
Text:TEMPO 0215/0218 BKN010
Forecast period:1500 to 1800 UTC 02 October 2022
Forecast type:TEMPORARY: The following changes expected for less than half the time period
Ceiling:1000 feet AGL
Clouds: broken clouds at 1000 feet AGL
Text:BECMG 0218/0221 1200 BR OVC003
Forecast period:1800 UTC 02 October 2022 to 0000 UTC 03 October 2022
Forecast type:BECOMING: Conditions expected to become as follows by 2100 UTC 02 October 2022
Winds:from the NW (320 degrees) at 6 MPH (5 knots; 2.6 m/s)
Visibility: 0.75 sm ( 1.21 km)
Ceiling:300 feet AGL
Clouds: overcast cloud deck at 300 feet AGL
Weather:BR (mist)